FXMM/MSU METAR and TAF weather

Enter ICAO airport designator
Station Type Date Time Source
FXMM METAR 2019/08/19 14:00 UTC NOAA

FXMM 191400Z 20022KT 9999 FEW035 BKN/// 20/M08 Q1024 NOSIG


Station Type Date Time Source
FXMM Decoded METAR 2019/08/19 14:00 UTC NOAA

Maseru / Moshoeshoe, Lesotho (FXMM) 29-27S 027-33E
Aug 19, 2019 - 10:00 AM EDT / 2019.08.19 1400 UTC
Wind: from the SSW (200 degrees) at 25 MPH (22 KT):0
Visibility: greater than 7 mile(s):0
Sky conditions: mostly cloudy
Temperature: 68 F (20 C)
Dew Point: 17 F (-8 C)
Relative Humidity: 14%
Pressure (altimeter): 30.24 in. Hg (1024 hPa)
ob: FXMM 191400Z 20022KT 9999 FEW035 BKN/// 20/M08 Q1024 NOSIG
cycle: 14

Station Type Date Time Source
FXMM TAF 2019/08/15 06:24 UTC NOAA

TAF TAF FXMM 150400Z 1506/1606 30004KT 9999 NSC
FM150800 34008KT CAVOK
FM151600 00000KT

Example: see airport list